Time;durP1;ratioP1;P1;durP2;ratioP2;P2;SDS_P1;SDS_P2;PMS_P1;PMS_P2;Temp;Humidity;BMP_temperature;BMP_pressure;BME280_temperature;BME280_humidity;BME280_pressure;Samples;Min_cycle;Max_cycle;Signal;HPM_P1;HPM_P2
2022/07/08 00:02:06;;;;;;;1.90;0.57;;;;;;;15.22;62.70;103187.13;5052870;27;96598;-34
2022/07/08 00:04:32;;;;;;;1.67;0.73;;;;;;;15.24;63.13;103207.06;5052769;27;96777;-34
2022/07/08 00:06:57;;;;;;;0.82;0.50;;;;;;;15.21;63.32;103204.47;5052697;27;98267;-34
2022/07/08 00:09:23;;;;;;;3.55;1.15;;;;;;;15.12;63.69;103183.03;5052399;27;107465;-34
2022/07/08 00:11:48;;;;;;;3.15;1.00;;;;;;;15.13;64.15;103194.84;5052851;27;96574;-34
2022/07/08 00:14:14;;;;;;;2.70;0.90;;;;;;;15.11;64.10;103192.19;5052262;27;96826;-34
2022/07/08 00:16:40;;;;;;;1.58;0.65;;;;;;;15.10;63.59;103189.53;5052138;27;97843;-34
2022/07/08 00:19:14;;;;;;;3.45;0.95;;;;;;;15.00;64.21;103189.91;5051104;27;100908;-34
2022/07/08 00:21:43;;;;;;;2.20;0.90;;;;;;;15.00;63.53;103189.03;5052324;27;96720;-34
2022/07/08 00:24:13;;;;;;;1.33;0.60;;;;;;;15.01;64.13;103188.06;5051015;27;96823;-34
2022/07/08 00:26:39;;;;;;;2.88;0.80;;;;;;;14.98;63.89;103193.66;5050784;27;101142;-34
2022/07/08 00:29:05;;;;;;;4.32;0.80;;;;;;;14.94;64.01;103197.47;5050996;27;101050;-34
2022/07/08 00:31:30;;;;;;;3.17;0.65;;;;;;;14.96;64.23;103201.91;5052548;27;96615;-34
2022/07/08 00:33:56;;;;;;;1.27;0.70;;;;;;;14.92;63.69;103199.38;5052654;27;96784;-34
2022/07/08 00:36:21;;;;;;;1.08;0.60;;;;;;;14.89;64.45;103194.03;5051992;27;100735;-34
2022/07/08 00:38:47;;;;;;;1.60;0.70;;;;;;;14.85;64.25;103191.44;5052241;27;97306;-34
2022/07/08 00:41:12;;;;;;;5.10;0.90;;;;;;;14.83;64.31;103190.63;5051851;27;96498;-34
2022/07/08 00:43:40;;;;;;;4.30;0.63;;;;;;;14.78;64.67;103198.13;5052151;27;96772;-34
2022/07/08 00:46:06;;;;;;;3.53;0.88;;;;;;;14.72;64.59;103194.75;5050735;27;100951;-34
2022/07/08 00:48:32;;;;;;;2.17;0.65;;;;;;;14.69;64.82;103209.41;5052114;27;97380;-34
2022/07/08 00:51:00;;;;;;;4.45;0.90;;;;;;;14.64;64.83;103206.88;5050722;27;96514;-34
2022/07/08 00:53:28;;;;;;;3.05;0.75;;;;;;;14.53;65.33;103186.41;5050808;27;96850;-34
2022/07/08 00:55:53;;;;;;;4.72;0.80;;;;;;;14.58;65.21;103203.50;5050063;27;100865;-34
2022/07/08 00:58:19;;;;;;;4.32;0.60;;;;;;;14.53;65.38;103200.03;5052404;27;97878;-34
2022/07/08 01:00:45;;;;;;;0.77;0.52;;;;;;;14.50;65.14;103201.06;5050587;27;96664;-34
2022/07/08 01:03:11;;;;;;;3.45;1.08;;;;;;;14.49;65.70;103202.00;5050623;27;96914;-34
2022/07/08 01:05:48;;;;;;;2.85;0.60;;;;;;;14.47;66.04;103200.28;5051508;27;97996;-34
2022/07/08 01:08:14;;;;;;;5.78;1.27;;;;;;;14.38;66.01;103186.06;5051928;27;97777;-34
2022/07/08 01:10:39;;;;;;;7.25;0.68;;;;;;;14.39;66.30;103189.69;5054182;27;96728;-34
2022/07/08 01:13:06;;;;;;;1.48;0.52;;;;;;;14.36;66.27;103187.97;5055488;27;96792;-34
2022/07/08 01:15:32;;;;;;;2.75;0.32;;;;;;;14.26;66.58;103178.38;5053856;27;100945;-34
2022/07/08 01:17:57;;;;;;;0.80;0.45;;;;;;;14.28;66.37;103201.03;5053650;27;100986;-34
2022/07/08 01:20:22;;;;;;;0.75;0.50;;;;;;;14.21;66.66;103188.59;5055474;27;96498;-34
2022/07/08 01:22:49;;;;;;;1.85;0.60;;;;;;;14.23;66.79;103189.41;5055877;27;96794;-34
2022/07/08 01:25:14;;;;;;;1.50;0.63;;;;;;;14.12;66.75;103184.38;5054989;27;98003;-34
2022/07/08 01:27:39;;;;;;;0.85;0.47;;;;;;;14.12;66.78;103178.91;5055182;27;97491;-34
2022/07/08 01:30:06;;;;;;;0.63;0.50;;;;;;;14.19;66.99;103206.84;5054671;27;96887;-34
2022/07/08 01:32:32;;;;;;;2.67;0.55;;;;;;;14.14;66.95;103189.78;5053409;27;97735;-34
2022/07/08 01:34:58;;;;;;;3.80;0.57;;;;;;;14.08;67.26;103174.53;5053466;27;100810;-34
2022/07/08 01:37:23;;;;;;;0.75;0.40;;;;;;;14.05;67.35;103188.28;5055083;27;97307;-34
2022/07/08 01:39:49;;;;;;;0.85;0.52;;;;;;;14.08;67.51;103190.00;5054623;27;96679;-34
2022/07/08 01:42:14;;;;;;;2.83;0.55;;;;;;;14.08;66.98;103192.72;5054964;27;96801;-34
2022/07/08 01:44:39;;;;;;;3.00;0.50;;;;;;;14.00;67.62;103191.19;5054505;27;105024;-34
2022/07/08 01:47:05;;;;;;;3.30;0.70;;;;;;;14.02;67.97;103192.03;5054577;27;115131;-34
2022/07/08 01:49:30;;;;;;;4.30;0.82;;;;;;;13.92;67.92;103182.44;5054970;27;97086;-34
2022/07/08 01:51:55;;;;;;;2.60;0.73;;;;;;;13.94;67.69;103201.44;5054196;27;113614;-34
2022/07/08 01:54:21;;;;;;;1.92;0.60;;;;;;;13.93;68.22;103195.09;5053995;27;97880;-34
2022/07/08 01:56:46;;;;;;;2.50;0.73;;;;;;;13.86;67.42;103190.81;5054677;27;104897;-34
2022/07/08 01:59:11;;;;;;;0.57;0.40;;;;;;;13.86;68.44;103192.66;5054403;27;97307;-34
2022/07/08 02:01:36;;;;;;;3.55;1.20;;;;;;;13.85;67.60;103186.34;5054720;27;96790;-34
2022/07/08 02:04:02;;;;;;;1.05;0.50;;;;;;;13.81;68.08;103182.81;5054294;27;113502;-34
2022/07/08 02:06:31;;;;;;;0.60;0.40;;;;;;;13.84;67.52;103184.53;5054268;27;99105;-34
2022/07/08 02:08:56;;;;;;;0.60;0.45;;;;;;;13.80;67.81;103189.22;5052674;27;96771;-34
2022/07/08 02:14:05;;;;;;;3.20;0.68;;;;;;;13.72;68.64;103175.00;5054641;27;97141;-34
2022/07/08 02:16:30;;;;;;;6.35;0.82;;;;;;;13.70;67.66;103184.16;5054064;27;99417;-34
2022/07/08 02:18:56;;;;;;;0.65;0.52;;;;;;;13.67;68.14;103177.00;5053989;27;96478;-34
2022/07/08 02:21:21;;;;;;;1.48;0.82;;;;;;;13.70;68.84;103193.22;5054091;27;96798;-34
2022/07/08 02:23:46;;;;;;;1.90;0.75;;;;;;;13.65;68.68;103189.78;5054385;27;97997;-34
2022/07/08 02:26:12;;;;;;;3.78;0.60;;;;;;;13.65;68.80;103187.06;5054271;27;97742;-34
2022/07/08 02:28:37;;;;;;;3.63;0.60;;;;;;;13.68;68.57;103203.31;5054421;27;96580;-34
2022/07/08 02:31:02;;;;;;;1.27;0.57;;;;;;;13.66;68.41;103198.84;5052818;27;96905;-34
2022/07/08 02:33:28;;;;;;;0.30;0.30;;;;;;;13.56;69.16;103174.69;5054000;27;97982;-34
2022/07/08 02:35:53;;;;;;;2.05;0.80;;;;;;;13.62;69.15;103187.19;5054489;27;97767;-34
2022/07/08 02:38:20;;;;;;;2.10;0.65;;;;;;;13.53;68.76;103173.91;5053629;27;106699;-34
2022/07/08 02:40:45;;;;;;;0.88;0.38;;;;;;;13.59;68.78;103190.03;5052625;27;96907;-34
2022/07/08 02:43:11;;;;;;;1.33;0.40;;;;;;;13.53;68.92;103177.50;5053459;27;97846;-34
2022/07/08 02:45:37;;;;;;;3.35;1.10;;;;;;;13.53;69.24;103187.53;5053693;27;99267;-34
2022/07/08 02:48:04;;;;;;;1.92;0.68;;;;;;;13.55;69.22;103183.78;5054094;27;96370;-34
2022/07/08 02:50:29;;;;;;;4.60;1.23;;;;;;;13.53;69.50;103185.69;5052215;27;96797;-34
2022/07/08 02:52:55;;;;;;;1.05;0.60;;;;;;;13.42;69.21;103160.69;5053251;27;115653;-34
2022/07/08 02:55:20;;;;;;;1.50;0.70;;;;;;;13.50;69.07;103177.63;5053656;27;97739;-34
2022/07/08 02:57:45;;;;;;;1.27;0.57;;;;;;;13.42;69.41;103176.13;5053977;27;96542;-34
2022/07/08 03:00:11;;;;;;;0.35;0.30;;;;;;;13.42;69.15;103182.47;5054224;27;96837;-34
2022/07/08 03:02:36;;;;;;;5.30;0.68;;;;;;;13.40;69.61;103173.47;5053536;27;97516;-34
2022/07/08 03:05:02;;;;;;;4.45;1.00;;;;;;;13.35;69.08;103173.63;5053477;27;97869;-34
2022/07/08 03:07:36;;;;;;;1.30;0.60;;;;;;;13.42;70.23;103182.47;5052133;27;96657;-34
2022/07/08 03:10:02;;;;;;;1.58;0.70;;;;;;;13.38;70.07;103175.34;5053303;27;96815;-34
2022/07/08 03:12:27;;;;;;;2.05;0.70;;;;;;;13.40;69.41;103181.63;5053341;27;98667;-34
2022/07/08 03:14:53;;;;;;;2.55;0.93;;;;;;;13.41;69.59;103186.13;5053581;27;97983;-34
2022/07/08 03:17:18;;;;;;;2.90;0.85;;;;;;;13.37;69.93;103184.44;5053708;27;96569;-34
2022/07/08 03:19:43;;;;;;;1.30;0.70;;;;;;;13.29;69.99;103170.22;5053332;27;96865;-34
2022/07/08 03:22:08;;;;;;;1.08;0.55;;;;;;;13.27;70.05;103175.72;5053255;27;98023;-34
2022/07/08 03:24:34;;;;;;;1.25;0.77;;;;;;;13.30;70.23;103181.09;5052557;27;97791;-34
2022/07/08 03:26:59;;;;;;;2.38;0.98;;;;;;;13.26;69.45;103173.94;5052055;27;96594;-34
2022/07/08 03:29:25;;;;;;;1.40;0.50;;;;;;;13.23;70.18;103173.13;5053462;27;96876;-34
2022/07/08 03:31:50;;;;;;;1.35;0.57;;;;;;;13.26;70.58;103170.31;5050802;27;98042;-34
2022/07/08 03:34:15;;;;;;;1.75;0.85;;;;;;;13.24;70.75;103175.81;5052448;27;113526;-34
2022/07/08 03:36:40;;;;;;;3.22;0.88;;;;;;;13.25;70.03;103168.53;5052672;27;106597;-34
2022/07/08 03:39:06;;;;;;;4.55;0.90;;;;;;;13.22;70.83;103174.09;5053152;27;98855;-34
2022/07/08 03:41:31;;;;;;;3.63;0.70;;;;;;;13.29;70.43;103175.69;5052402;27;113016;-34
2022/07/08 03:43:56;;;;;;;2.50;0.68;;;;;;;13.21;70.42;103172.31;5052731;27;98971;-34
2022/07/08 03:46:22;;;;;;;2.33;0.55;;;;;;;13.19;70.65;103180.53;5052234;27;117577;-34
2022/07/08 03:48:48;;;;;;;3.08;0.60;;;;;;;13.26;70.22;103190.25;5053353;27;96743;-34
2022/07/08 03:51:14;;;;;;;3.22;0.55;;;;;;;13.20;70.34;103185.00;5051441;27;101037;-34
2022/07/08 03:53:39;;;;;;;3.63;0.57;;;;;;;13.25;70.47;103195.75;5051360;27;100931;-34
2022/07/08 03:56:05;;;;;;;1.50;0.60;;;;;;;13.27;70.63;103191.13;5051571;27;111707;-34
2022/07/08 03:58:31;;;;;;;4.82;1.13;;;;;;;13.26;70.61;103184.81;5052999;27;96570;-34
2022/07/08 04:00:57;;;;;;;3.85;1.13;;;;;;;13.22;70.83;103177.69;5051235;27;101476;-34
2022/07/08 04:03:22;;;;;;;3.75;1.00;;;;;;;13.26;70.98;103181.22;5052764;27;97798;-34
2022/07/08 04:05:48;;;;;;;3.95;0.82;;;;;;;13.28;70.89;103184.81;5052606;27;96613;-34
2022/07/08 04:08:13;;;;;;;1.95;0.68;;;;;;;13.25;71.21;103183.03;5052609;27;96809;-34
2022/07/08 04:10:39;;;;;;;0.77;0.57;;;;;;;13.24;70.58;103178.53;5052321;27;97881;-34
2022/07/08 04:13:04;;;;;;;1.25;0.65;;;;;;;13.26;70.78;103181.22;5052876;27;97747;-34
2022/07/08 04:15:29;;;;;;;7.70;1.08;;;;;;;13.27;70.60;103180.25;5052687;27;96478;-34
2022/07/08 04:17:55;;;;;;;1.67;0.65;;;;;;;13.29;70.97;103181.13;5052821;27;96827;-35
2022/07/08 04:20:20;;;;;;;1.13;0.50;;;;;;;13.32;70.96;103194.63;5050820;27;123885;-34
2022/07/08 04:22:45;;;;;;;3.47;0.68;;;;;;;13.32;71.00;103197.34;5052465;27;97781;-34
2022/07/08 04:25:11;;;;;;;2.53;0.60;;;;;;;13.28;71.04;103185.69;5052169;27;107607;-34
2022/07/08 04:27:36;;;;;;;1.77;0.70;;;;;;;13.35;71.46;103194.53;5052267;27;101978;-34
2022/07/08 04:30:03;;;;;;;3.47;0.55;;;;;;;13.30;71.04;103183.81;5052419;27;98068;-34
2022/07/08 04:32:28;;;;;;;2.38;0.85;;;;;;;13.32;70.97;103189.16;5050646;27;102006;-34
2022/07/08 04:34:58;;;;;;;1.17;0.60;;;;;;;13.35;70.93;103191.81;5051979;27;101362;-34
2022/07/08 04:37:23;;;;;;;0.93;0.65;;;;;;;13.34;70.69;103196.34;5051277;27;96946;-34
2022/07/08 04:39:48;;;;;;;2.05;0.90;;;;;;;13.36;71.11;103196.28;5052303;27;97486;-34
2022/07/08 04:42:14;;;;;;;1.75;0.93;;;;;;;13.39;71.78;103198.91;5051984;27;98747;-34
2022/07/08 04:44:39;;;;;;;1.38;0.38;;;;;;;13.44;71.30;103204.19;5052008;27;96560;-34
2022/07/08 04:47:05;;;;;;;0.80;0.40;;;;;;;13.49;70.83;103208.53;5055533;27;96817;-34
2022/07/08 04:49:30;;;;;;;2.30;1.13;;;;;;;13.49;70.70;103205.81;5055681;27;99409;-34
2022/07/08 04:51:55;;;;;;;2.83;0.73;;;;;;;13.58;70.27;103202.72;5055299;27;116097;-34
2022/07/08 04:54:21;;;;;;;2.50;0.80;;;;;;;13.61;70.72;103209.94;5055093;27;110140;-34
2022/07/08 04:56:46;;;;;;;7.43;0.85;;;;;;;13.60;70.07;103206.28;5055801;27;96757;-34
2022/07/08 04:59:11;;;;;;;3.40;0.50;;;;;;;13.76;70.06;103233.88;5054871;27;117680;-34
2022/07/08 05:01:37;;;;;;;3.13;0.50;;;;;;;13.79;69.88;103227.41;5055371;27;111286;-34
2022/07/08 05:04:02;;;;;;;4.88;0.57;;;;;;;13.81;69.38;103233.69;5055376;27;98242;-34
2022/07/08 05:06:27;;;;;;;2.22;0.55;;;;;;;13.88;72.19;103237.09;5055786;27;96831;-35
2022/07/08 05:08:52;;;;;;;2.75;0.73;;;;;;;13.93;70.25;103238.69;5054366;27;99309;-34
2022/07/08 05:11:18;;;;;;;0.57;0.45;;;;;;;13.99;70.27;103238.47;5054915;27;115161;-34
2022/07/08 05:13:43;;;;;;;2.25;0.50;;;;;;;14.09;70.90;103243.59;5054034;27;96631;-34
2022/07/08 05:16:08;;;;;;;3.72;1.20;;;;;;;14.13;70.00;103239.78;5055494;27;96798;-34
2022/07/08 05:18:34;;;;;;;5.97;0.77;;;;;;;14.26;70.30;103254.72;5054999;27;99434;-35
2022/07/08 05:20:59;;;;;;;2.33;0.47;;;;;;;14.27;69.69;103236.50;5054855;27;99122;-34
2022/07/08 05:23:24;;;;;;;2.25;0.40;;;;;;;14.31;69.13;103230.88;5055307;27;97844;-34
2022/07/08 05:25:50;;;;;;;5.22;1.15;;;;;;;14.50;69.69;103241.09;5055840;27;96767;-34
2022/07/08 05:28:15;;;;;;;5.07;0.77;;;;;;;14.57;69.85;103248.97;5054548;27;114444;-34
2022/07/08 05:30:40;;;;;;;4.75;0.73;;;;;;;14.63;70.00;103242.38;5054842;27;110790;-34
2022/07/08 05:33:06;;;;;;;4.15;1.02;;;;;;;14.73;70.38;103240.16;5054342;27;96717;-34
2022/07/08 05:35:31;;;;;;;3.92;0.77;;;;;;;14.85;70.26;103248.75;5055045;27;99413;-34
2022/07/08 05:37:56;;;;;;;3.13;0.68;;;;;;;14.91;70.13;103238.53;5055234;27;96757;-34
2022/07/08 05:40:22;;;;;;;2.38;1.30;;;;;;;15.05;69.45;103241.56;5054921;27;97748;-34
2022/07/08 05:42:47;;;;;;;1.77;0.68;;;;;;;15.11;69.15;103249.53;5054249;27;120075;-34
2022/07/08 05:45:13;;;;;;;3.08;1.00;;;;;;;15.15;69.42;103237.50;5054589;27;108677;-34
2022/07/08 05:47:39;;;;;;;3.97;0.70;;;;;;;15.21;69.46;103237.25;5054740;27;98072;-34
2022/07/08 05:50:05;;;;;;;8.00;1.25;;;;;;;15.34;70.03;103245.78;5055087;27;97892;-34
2022/07/08 05:52:31;;;;;;;0.88;0.40;;;;;;;15.47;69.59;103252.50;5053440;27;96593;-34
2022/07/08 05:54:56;;;;;;;3.33;0.80;;;;;;;15.56;68.54;103243.00;5054291;27;96757;-34
2022/07/08 05:57:21;;;;;;;2.53;0.68;;;;;;;15.70;68.99;103248.78;5053952;27;99667;-34
2022/07/08 05:59:47;;;;;;;19.73;2.90;;;;;;;15.76;70.54;103244.00;5054104;27;99176;-33
2022/07/08 06:02:12;;;;;;;3.95;0.85;;;;;;;15.89;69.53;103250.69;5054161;27;96785;-34
2022/07/08 06:04:38;;;;;;;1.30;0.73;;;;;;;15.96;69.08;103252.19;5054836;27;96805;-34
2022/07/08 06:07:03;;;;;;;7.00;1.17;;;;;;;16.07;68.78;103254.44;5054236;27;97340;-33
2022/07/08 06:09:29;;;;;;;7.93;0.98;;;;;;;16.14;69.12;103248.59;5052852;27;100945;-34
2022/07/08 06:11:54;;;;;;;1.70;0.77;;;;;;;16.25;67.95;103253.56;5053952;27;96553;-34
2022/07/08 06:14:20;;;;;;;7.38;1.08;;;;;;;16.39;68.33;103261.09;5054996;27;96788;-34
2022/07/08 06:16:48;;;;;;;5.25;1.17;;;;;;;16.48;68.76;103266.16;5054189;27;97945;-34
2022/07/08 06:19:17;;;;;;;3.70;0.65;;;;;;;16.53;68.22;103263.19;5052873;27;100849;-34
2022/07/08 06:21:43;;;;;;;4.03;1.30;;;;;;;16.67;67.24;103273.47;5051370;27;97132;-34
2022/07/08 06:24:08;;;;;;;1.45;0.70;;;;;;;16.74;67.48;103267.63;5052121;27;96701;-34
2022/07/08 06:26:34;;;;;;;4.38;0.98;;;;;;;16.87;67.47;103272.53;5054121;27;98041;-34
2022/07/08 06:29:00;;;;;;;3.70;0.93;;;;;;;16.91;67.16;103269.56;5054326;27;98269;-34
2022/07/08 06:31:25;;;;;;;5.25;1.10;;;;;;;17.05;67.61;103281.69;5053281;27;111627;-34
2022/07/08 06:33:56;;;;;;;7.03;0.90;;;;;;;17.09;66.79;103281.47;5053970;27;96792;-34
2022/07/08 06:36:22;;;;;;;7.25;1.05;;;;;;;17.11;67.21;103278.63;5053922;27;98866;-34
2022/07/08 06:38:48;;;;;;;2.85;0.70;;;;;;;17.15;67.09;103272.03;5054399;27;97356;-34
2022/07/08 06:41:13;;;;;;;6.45;1.30;;;;;;;17.20;67.24;103275.44;5053450;27;115307;-34
2022/07/08 06:43:38;;;;;;;2.85;0.90;;;;;;;17.24;67.29;103282.53;5054039;27;99276;-34
2022/07/08 06:46:04;;;;;;;3.80;1.17;;;;;;;17.29;67.15;103285.91;5053002;27;99246;-34
2022/07/08 06:48:29;;;;;;;11.25;1.25;;;;;;;17.20;66.68;103275.44;5053813;27;98114;-34
2022/07/08 06:50:55;;;;;;;3.85;1.15;;;;;;;17.30;66.69;103287.69;5054112;27;96549;-34
2022/07/08 06:53:20;;;;;;;1.30;0.57;;;;;;;17.31;66.68;103283.13;5054121;27;96745;-34
2022/07/08 06:55:45;;;;;;;2.08;0.98;;;;;;;17.41;66.83;103274.31;5053088;27;109387;-34
2022/07/08 06:58:11;;;;;;;5.10;0.88;;;;;;;17.61;65.99;103284.28;5053104;27;126040;-34
2022/07/08 07:00:36;;;;;;;1.92;0.80;;;;;;;17.83;65.54;103273.06;5053394;27;96669;-34
2022/07/08 07:03:01;;;;;;;1.55;0.85;;;;;;;18.01;65.97;103278.53;5054302;27;96744;-34
2022/07/08 07:05:27;;;;;;;3.88;1.58;;;;;;;18.20;65.24;103272.94;5051974;27;101675;-34
2022/07/08 07:07:52;;;;;;;2.17;1.10;;;;;;;18.32;64.80;103271.34;5052405;27;99106;-34
2022/07/08 07:10:17;;;;;;;4.38;1.05;;;;;;;18.36;64.64;103283.94;5053046;27;96645;-34
2022/07/08 07:12:43;;;;;;;5.05;1.33;;;;;;;18.34;64.45;103289.50;5053360;27;98562;-34
2022/07/08 07:15:08;;;;;;;4.13;0.80;;;;;;;18.33;64.68;103284.09;5053323;27;97821;-34
2022/07/08 07:17:34;;;;;;;2.80;0.85;;;;;;;18.32;64.66;103276.84;5053167;27;99104;-34
2022/07/08 07:19:59;;;;;;;3.97;1.05;;;;;;;18.44;63.86;103274.28;5053231;27;96590;-34
2022/07/08 07:22:25;;;;;;;5.85;1.20;;;;;;;18.55;63.98;103283.81;5053290;27;96888;-34
2022/07/08 07:24:50;;;;;;;3.28;0.88;;;;;;;18.58;64.17;103283.63;5052022;27;98251;-34
2022/07/08 07:27:15;;;;;;;2.70;0.82;;;;;;;18.53;64.08;103264.66;5053509;27;102928;-34
2022/07/08 07:29:41;;;;;;;2.53;1.02;;;;;;;18.79;64.00;103276.06;5053297;27;96523;-34
2022/07/08 07:32:06;;;;;;;7.60;1.08;;;;;;;19.07;63.17;103273.47;5052186;27;96935;-34
2022/07/08 07:34:32;;;;;;;5.38;1.40;;;;;;;19.29;62.50;103269.44;5052403;27;98993;-34
2022/07/08 07:36:57;;;;;;;2.55;1.20;;;;;;;19.49;62.21;103274.59;5053227;27;104365;-34
2022/07/08 07:39:22;;;;;;;2.38;0.77;;;;;;;19.67;61.75;103271.72;5053312;27;96440;-34
2022/07/08 07:41:48;;;;;;;9.18;1.75;;;;;;;19.82;61.15;103273.56;5052956;27;100424;-34
2022/07/08 07:44:13;;;;;;;4.28;1.33;;;;;;;19.96;61.18;103271.81;5052520;27;112055;-34
2022/07/08 07:46:38;;;;;;;3.95;0.98;;;;;;;20.07;61.14;103272.00;5052870;27;97737;-34
2022/07/08 07:49:13;;;;;;;5.18;1.02;;;;;;;20.23;60.66;103271.94;5053093;27;96405;-34
2022/07/08 07:51:38;;;;;;;3.17;0.90;;;;;;;20.28;60.27;103256.00;5053524;27;96480;-34
2022/07/08 07:54:04;;;;;;;0.90;0.70;;;;;;;20.28;59.96;103265.13;5052550;27;99599;-34
2022/07/08 07:56:29;;;;;;;4.30;1.10;;;;;;;20.43;60.08;103263.28;5052787;27;97804;-34
2022/07/08 07:58:54;;;;;;;6.57;0.85;;;;;;;20.44;58.94;103264.16;5052332;27;97876;-34
2022/07/08 08:01:20;;;;;;;2.65;1.15;;;;;;;20.49;57.53;103259.22;5050377;27;121294;-34
2022/07/08 08:03:45;;;;;;;5.20;1.25;;;;;;;20.57;59.06;103260.53;5052743;27;97899;-34
2022/07/08 08:06:10;;;;;;;3.05;0.85;;;;;;;20.76;58.60;103265.72;5052673;27;97772;-34
2022/07/08 08:08:36;;;;;;;7.25;1.23;;;;;;;20.86;58.06;103254.09;5052643;27;96659;-34
2022/07/08 08:11:02;;;;;;;5.03;0.90;;;;;;;21.05;58.00;103260.13;5052498;27;96464;-34
2022/07/08 08:13:42;;;;;;;4.78;0.98;;;;;;;21.18;57.46;103261.03;5050770;27;100598;-34
2022/07/08 08:16:08;;;;;;;4.78;0.80;;;;;;;21.32;57.78;103259.22;5052756;27;99177;-34
2022/07/08 08:18:33;;;;;;;3.88;0.93;;;;;;;21.56;56.85;103265.81;5052237;27;96509;-34
2022/07/08 08:20:58;;;;;;;6.43;1.20;;;;;;;21.64;56.58;103257.00;5051507;27;117354;-34
2022/07/08 08:23:24;;;;;;;4.18;0.95;;;;;;;21.70;56.47;103256.59;5050856;27;127381;-34
2022/07/08 08:25:49;;;;;;;2.88;1.00;;;;;;;21.81;55.90;103248.44;5051211;27;124560;-34
2022/07/08 08:28:15;;;;;;;5.93;1.40;;;;;;;21.98;56.26;103258.25;5052429;27;96613;-34
2022/07/08 08:30:40;;;;;;;7.18;1.33;;;;;;;22.01;55.36;103246.13;5052353;27;97020;-34
2022/07/08 08:33:06;;;;;;;1.88;0.88;;;;;;;22.18;53.78;103251.28;5051749;27;99256;-34
2022/07/08 08:35:31;;;;;;;8.63;1.30;;;;;;;22.31;55.22;103262.38;5050793;27;99320;-35
2022/07/08 08:37:56;;;;;;;7.38;1.20;;;;;;;22.46;54.79;103255.72;5050897;27;96625;-34
2022/07/08 08:40:23;;;;;;;4.72;1.05;;;;;;;22.50;54.67;103248.09;5052626;27;96803;-34
2022/07/08 08:42:48;;;;;;;5.28;1.23;;;;;;;22.54;54.52;103254.25;5050511;27;101241;-34
2022/07/08 08:45:14;;;;;;;3.97;1.00;;;;;;;22.57;52.70;103246.63;5051917;27;99431;-34
2022/07/08 08:47:39;;;;;;;7.75;1.17;;;;;;;22.52;54.61;103259.88;5051644;27;96490;-34
2022/07/08 08:52:55;;;;;;;3.35;1.00;;;;;;;22.89;53.36;103263.53;5052611;27;97104;-34
2022/07/08 08:55:25;;;;;;;2.35;1.02;;;;;;;22.83;53.54;103241.00;5051675;27;97323;-34
2022/07/08 08:57:50;;;;;;;3.95;1.10;;;;;;;23.03;52.81;103248.72;5050644;27;96809;-34
2022/07/08 09:00:15;;;;;;;4.70;1.35;;;;;;;23.09;52.19;103255.63;5052106;27;96547;-34
2022/07/08 09:02:41;;;;;;;7.03;1.08;;;;;;;23.23;52.91;103244.41;5051542;27;109001;-34
2022/07/08 09:05:07;;;;;;;1.90;0.77;;;;;;;23.36;51.35;103248.97;5050884;27;101011;-34
2022/07/08 09:07:32;;;;;;;4.07;1.08;;;;;;;23.42;51.92;103254.91;5050370;27;97369;-34
2022/07/08 09:09:58;;;;;;;4.13;1.23;;;;;;;23.53;52.19;103245.78;5050978;27;112655;-34
2022/07/08 09:12:25;;;;;;;2.85;0.93;;;;;;;23.63;51.00;103241.28;5050493;27;118971;-34
2022/07/08 09:14:51;;;;;;;4.50;1.30;;;;;;;23.65;51.21;103255.00;5050419;27;100948;-34
2022/07/08 09:17:17;;;;;;;5.18;1.30;;;;;;;23.83;51.34;103247.13;5050538;27;96662;-34
2022/07/08 09:19:46;;;;;;;3.85;1.00;;;;;;;24.01;50.73;103253.09;5051949;27;96772;-34
2022/07/08 09:22:12;;;;;;;3.30;1.10;;;;;;;24.04;49.16;103231.56;5049949;27;100931;-34
2022/07/08 09:24:39;;;;;;;6.78;1.25;;;;;;;24.13;51.19;103246.56;5051803;27;97927;-34
2022/07/08 09:27:06;;;;;;;4.03;0.88;;;;;;;24.22;50.24;103258.75;5051769;27;96442;-34
2022/07/08 09:29:31;;;;;;;5.95;1.40;;;;;;;24.29;50.26;103248.97;5050847;27;96967;-34
2022/07/08 09:32:14;;;;;;;6.32;1.02;;;;;;;24.35;49.53;103243.78;5053631;27;97818;-34
2022/07/08 09:34:43;;;;;;;4.82;1.20;;;;;;;24.45;49.15;103243.03;5053160;27;100770;-34
2022/07/08 09:37:15;;;;;;;4.93;1.50;;;;;;;24.49;49.32;103258.44;5053292;27;97132;-34
2022/07/08 09:39:41;;;;;;;8.45;1.00;;;;;;;24.55;49.01;103258.81;5053744;27;96894;-34
2022/07/08 09:42:08;;;;;;;4.15;1.10;;;;;;;24.51;48.87;103268.38;5054821;27;98543;-34
2022/07/08 09:44:35;;;;;;;6.45;1.23;;;;;;;24.63;48.31;103260.06;5053387;27;101269;-34
2022/07/08 09:47:00;;;;;;;2.95;1.00;;;;;;;24.77;48.57;103265.31;5053607;27;96668;-34
2022/07/08 09:49:28;;;;;;;3.92;0.90;;;;;;;24.73;48.75;103264.69;5054647;27;96856;-34
2022/07/08 09:51:55;;;;;;;2.13;0.90;;;;;;;24.70;48.11;103258.53;5053275;27;101430;-34
2022/07/08 09:54:21;;;;;;;2.55;1.20;;;;;;;24.70;47.85;103258.53;5053506;27;101120;-34
2022/07/08 09:57:16;;;;;;;3.38;1.20;;;;;;;24.85;45.86;103271.09;5054687;27;96458;-34
2022/07/08 09:59:41;;;;;;;3.47;0.65;;;;;;;24.82;47.18;103267.72;5039419;27;102484;-34
2022/07/08 10:02:06;;;;;;;6.80;1.52;;;;;;;24.91;47.21;103262.28;5053904;27;99138;-34
2022/07/08 10:04:32;;;;;;;2.95;0.88;;;;;;;24.99;47.78;103259.72;5054213;27;106132;-34
2022/07/08 10:06:58;;;;;;;2.30;1.08;;;;;;;25.09;47.63;103264.47;5054343;27;96600;-34
2022/07/08 10:09:25;;;;;;;3.25;0.80;;;;;;;25.13;46.71;103266.88;5052748;27;96897;-34
2022/07/08 10:11:52;;;;;;;4.22;1.10;;;;;;;24.97;45.92;103260.84;5053028;27;101036;-34
2022/07/08 10:14:18;;;;;;;3.63;1.10;;;;;;;25.14;46.80;103259.41;5052740;27;100725;-34
2022/07/08 10:16:46;;;;;;;7.00;1.40;;;;;;;25.22;46.97;103245.81;5053078;27;96713;-34
2022/07/08 10:19:15;;;;;;;5.47;2.20;;;;;;;25.32;45.92;103254.22;5054763;27;96802;-34
2022/07/08 10:21:44;;;;;;;2.10;1.10;;;;;;;25.47;46.79;103271.44;5052838;27;101163;-34
2022/07/08 10:24:17;;;;;;;4.32;1.30;;;;;;;25.53;45.33;103268.09;5052832;27;101009;-34
2022/07/08 10:26:44;;;;;;;5.15;1.08;;;;;;;25.58;45.45;103263.94;5054014;27;96667;-35
2022/07/08 10:29:13;;;;;;;11.32;1.55;;;;;;;25.65;44.73;103267.06;5054170;27;96801;-34
2022/07/08 10:31:46;;;;;;;6.90;1.35;;;;;;;25.64;45.29;103270.81;5052662;27;101147;-34
2022/07/08 10:34:28;;;;;;;3.83;1.17;;;;;;;25.71;44.95;103262.84;5052320;27;100957;-34
2022/07/08 10:36:54;;;;;;;27.85;3.83;;;;;;;25.75;45.26;103268.00;5054392;27;96661;-34
2022/07/08 10:39:46;;;;;;;4.10;1.30;;;;;;;25.88;45.42;103258.59;5053993;27;96809;-34
2022/07/08 10:42:11;;;;;;;3.85;1.15;;;;;;;25.85;45.84;103249.50;5050373;27;98243;-34
2022/07/08 10:44:42;;;;;;;1.60;1.02;;;;;;;25.83;45.27;103248.75;5054152;27;98391;-34
2022/07/08 10:47:09;;;;;;;5.63;1.25;;;;;;;25.93;45.47;103247.97;5054082;27;96521;-35
2022/07/08 10:49:47;;;;;;;6.55;1.20;;;;;;;26.03;43.34;103248.91;5052547;27;96845;-35
2022/07/08 10:52:14;;;;;;;3.15;1.15;;;;;;;26.04;43.26;103250.66;5051683;27;100857;-35
2022/07/08 10:54:39;;;;;;;4.15;1.23;;;;;;;26.07;42.83;103250.38;5051998;27;100688;-34
2022/07/08 10:57:09;;;;;;;9.43;2.20;;;;;;;26.16;45.33;103246.78;5052492;27;96835;-34
2022/07/08 10:59:36;;;;;;;2.72;1.00;;;;;;;26.16;44.94;103254.25;5051733;27;96916;-34
2022/07/08 11:02:14;;;;;;;6.55;1.23;;;;;;;26.15;41.61;103241.34;5052073;27;101062;-34
2022/07/08 11:04:40;;;;;;;12.52;1.45;;;;;;;26.27;43.40;103254.16;5051892;27;100765;-34
2022/07/08 11:07:14;;;;;;;7.95;1.30;;;;;;;26.28;42.56;103261.47;5053849;27;96678;-33
2022/07/08 11:09:40;;;;;;;6.13;1.67;;;;;;;26.36;42.97;103246.84;5053107;27;97074;-33
2022/07/08 11:12:12;;;;;;;1.75;0.80;;;;;;;26.43;43.71;103250.84;5052122;27;100907;-33
2022/07/08 11:14:45;;;;;;;17.80;1.50;;;;;;;26.41;42.61;103244.53;5051918;27;100799;-34
2022/07/08 11:17:17;;;;;;;3.55;1.23;;;;;;;26.59;42.40;103253.13;5051507;27;96841;-34
2022/07/08 11:19:47;;;;;;;4.60;1.10;;;;;;;26.55;43.00;103241.41;5050811;27;97146;-34
2022/07/08 11:22:14;;;;;;;1.67;0.95;;;;;;;26.51;42.56;103227.91;5051331;27;98931;-34
2022/07/08 11:24:41;;;;;;;3.33;1.25;;;;;;;26.58;43.05;103243.91;5051494;27;101457;-34